GMTN/TTU METAR and TAF weather

Enter ICAO airport designator
Station Type Date Time Source
GMTN METAR 2021/05/10 02:00 UTC NOAA

GMTN 100200Z 25008KT 200V280 6000 SCT016 SCT033 16/14 Q1013 NOSIG


Station Type Date Time Source
GMTN Decoded METAR 2021/05/10 02:00 UTC NOAA

Tetuan / Sania Ramel, Morocco (GMTN) 35-35N 005-20W 10M
May 09, 2021 - 10:00 PM EDT / 2021.05.10 0200 UTC
Wind: from the WSW (250 degrees) at 9 MPH (8 KT) (direction variable):0
Visibility: 3 mile(s):0
Sky conditions: partly cloudy
Temperature: 60 F (16 C)
Dew Point: 57 F (14 C)
Relative Humidity: 87%
Pressure (altimeter): 29.91 in. Hg (1013 hPa)
ob: GMTN 100200Z 25008KT 200V280 6000 SCT016 SCT033 16/14 Q1013 NOSIG
cycle: 2

Station Type Date Time Source
GMTN TAF UTC NOAA

Error!

Example: see airport list